createdAt,value
2023-07-26T00:00:50.058Z,0.90
2023-07-26T00:01:50.036Z,1.00
2023-07-26T00:02:50.128Z,0.80
2023-07-26T00:03:50.065Z,1.00
2023-07-26T00:04:50.034Z,0.90
2023-07-26T00:05:50.041Z,0.90
2023-07-26T00:06:50.013Z,1.10
2023-07-26T00:07:50.063Z,1.00
2023-07-26T00:08:50.002Z,0.90
2023-07-26T00:09:49.997Z,0.80
2023-07-26T00:10:49.995Z,0.90
2023-07-26T00:11:49.990Z,0.80
2023-07-26T00:12:49.999Z,0.90
2023-07-26T00:13:50.015Z,1.10
2023-07-26T00:14:49.971Z,0.90
2023-07-26T00:15:49.981Z,1.10
2023-07-26T00:16:49.960Z,1.10
2023-07-26T00:17:49.996Z,1.00
2023-07-26T00:18:49.950Z,1.20
2023-07-26T00:19:49.948Z,1.00
2023-07-26T00:20:49.945Z,1.00
2023-07-26T00:21:49.938Z,0.90
2023-07-26T00:22:50.006Z,0.90
2023-07-26T00:23:49.925Z,1.30
2023-07-26T00:24:49.994Z,0.90
2023-07-26T00:25:49.916Z,0.90
2023-07-26T00:26:49.909Z,1.00
2023-07-26T00:27:49.945Z,1.00
2023-07-26T00:28:49.924Z,1.00
2023-07-26T00:29:49.902Z,1.10
2023-07-26T00:30:49.900Z,0.80
2023-07-26T00:31:49.882Z,0.90
2023-07-26T00:32:49.941Z,1.10
2023-07-26T00:33:49.881Z,1.00
2023-07-26T00:34:49.869Z,1.00
2023-07-26T00:35:49.864Z,0.90
2023-07-26T00:36:49.858Z,1.00
2023-07-26T00:37:49.857Z,1.10
2023-07-26T00:38:49.927Z,1.10
2023-07-26T00:39:49.851Z,0.90
2023-07-26T00:40:49.843Z,1.00
2023-07-26T00:41:49.831Z,1.00
2023-07-26T00:42:49.823Z,1.00
2023-07-26T00:43:49.862Z,1.00
2023-07-26T00:44:49.830Z,1.10
2023-07-26T00:45:49.814Z,1.00
2023-07-26T00:46:49.858Z,1.10
2023-07-26T00:47:49.826Z,1.10
2023-07-26T00:48:49.803Z,0.80
2023-07-26T00:49:49.789Z,1.00
2023-07-26T00:50:49.775Z,0.90
2023-07-26T00:51:49.775Z,1.10
2023-07-26T00:52:49.769Z,1.00
2023-07-26T00:53:49.769Z,1.00
2023-07-26T00:54:49.761Z,1.10
2023-07-26T00:55:49.765Z,1.00
2023-07-26T00:56:49.751Z,0.90
2023-07-26T00:57:49.740Z,1.10
2023-07-26T00:58:49.735Z,0.90
2023-07-26T00:59:49.765Z,1.10
2023-07-26T01:00:49.821Z,1.00
2023-07-26T01:01:49.734Z,1.00
2023-07-26T01:02:49.785Z,1.10
2023-07-26T01:03:49.731Z,1.00
2023-07-26T01:04:49.701Z,0.90
2023-07-26T01:05:49.757Z,1.10
2023-07-26T01:06:49.689Z,1.00
2023-07-26T01:07:49.722Z,1.10
2023-07-26T01:08:49.744Z,1.00
2023-07-26T01:09:49.748Z,1.00
2023-07-26T01:10:49.686Z,1.10
2023-07-26T01:11:49.688Z,1.00
2023-07-26T01:12:49.701Z,1.00
2023-07-26T01:13:49.748Z,1.20
2023-07-26T01:14:49.760Z,1.00
2023-07-26T01:15:49.747Z,1.00
2023-07-26T01:16:49.685Z,1.00
2023-07-26T01:17:49.739Z,1.00
2023-07-26T01:18:49.681Z,1.00
2023-07-26T01:19:49.714Z,1.00
2023-07-26T01:20:49.737Z,1.20
2023-07-26T01:21:49.724Z,1.10
2023-07-26T01:22:49.678Z,1.00
2023-07-26T01:23:49.657Z,1.10
2023-07-26T01:24:49.622Z,1.10
2023-07-26T01:25:49.723Z,1.10
2023-07-26T01:26:49.588Z,1.10
2023-07-26T01:27:49.572Z,1.10
2023-07-26T01:28:49.567Z,1.10
2023-07-26T01:29:49.558Z,1.00
2023-07-26T01:30:49.572Z,1.10
2023-07-26T01:31:49.566Z,1.00
2023-07-26T01:32:49.564Z,1.10
2023-07-26T01:33:49.533Z,0.90
2023-07-26T01:34:49.533Z,0.90
2023-07-26T01:35:49.542Z,1.10
2023-07-26T01:36:49.702Z,1.10
2023-07-26T01:37:49.510Z,1.00
2023-07-26T01:38:49.520Z,1.30
2023-07-26T01:39:49.504Z,1.10
2023-07-26T01:40:49.491Z,1.00
2023-07-26T01:41:49.490Z,0.90
2023-07-26T01:42:49.479Z,0.90
2023-07-26T01:43:49.477Z,1.20
2023-07-26T01:44:49.472Z,1.20
2023-07-26T01:45:49.483Z,1.00
2023-07-26T01:46:49.493Z,1.10
2023-07-26T01:47:49.457Z,1.00
2023-07-26T01:48:49.445Z,1.10
2023-07-26T01:49:49.439Z,1.30
2023-07-26T01:50:49.436Z,1.10
2023-07-26T01:51:49.459Z,1.00
2023-07-26T01:52:49.419Z,1.10
2023-07-26T01:53:49.466Z,1.00
2023-07-26T01:54:49.405Z,1.10
2023-07-26T01:55:49.395Z,1.20
2023-07-26T01:56:49.392Z,1.10
2023-07-26T01:57:49.383Z,1.00
2023-07-26T01:58:49.382Z,1.20
2023-07-26T01:59:49.381Z,1.20
2023-07-26T02:00:49.365Z,1.30
2023-07-26T02:01:49.376Z,1.10
2023-07-26T02:02:49.396Z,1.30
2023-07-26T02:03:49.377Z,1.20
2023-07-26T02:04:49.344Z,1.10
2023-07-26T02:05:49.337Z,1.10
2023-07-26T02:06:49.330Z,1.20
2023-07-26T02:07:49.362Z,1.00
2023-07-26T02:08:49.318Z,1.10
2023-07-26T02:09:49.315Z,1.10
2023-07-26T02:10:49.303Z,1.20
2023-07-26T02:11:49.301Z,1.00
2023-07-26T02:12:49.293Z,1.10
2023-07-26T02:13:49.285Z,1.10
2023-07-26T02:14:49.279Z,1.20
2023-07-26T02:15:49.281Z,1.20
2023-07-26T02:16:49.267Z,1.20
2023-07-26T02:17:49.291Z,1.10
2023-07-26T02:18:49.256Z,1.10
2023-07-26T02:19:49.265Z,1.20
2023-07-26T02:20:49.243Z,1.30
2023-07-26T02:21:49.234Z,1.10
2023-07-26T02:22:49.228Z,1.10
2023-07-26T02:23:49.348Z,1.20
2023-07-26T02:24:49.257Z,1.10
2023-07-26T02:25:49.212Z,1.00
2023-07-26T02:26:49.218Z,1.20
2023-07-26T02:27:49.196Z,1.20
2023-07-26T02:28:49.295Z,1.20
2023-07-26T02:29:49.188Z,1.20
2023-07-26T02:30:49.191Z,1.30
2023-07-26T02:31:49.246Z,1.20
2023-07-26T02:32:49.183Z,1.10
2023-07-26T02:33:49.156Z,1.00
2023-07-26T02:34:49.152Z,1.20
2023-07-26T02:35:49.146Z,1.30
2023-07-26T02:36:49.135Z,1.10
2023-07-26T02:37:49.132Z,1.30
2023-07-26T02:38:49.186Z,1.20
2023-07-26T02:39:49.117Z,1.20
2023-07-26T02:40:49.115Z,1.30
2023-07-26T02:41:49.105Z,1.20
2023-07-26T02:42:49.123Z,1.20
2023-07-26T02:43:49.090Z,1.30
2023-07-26T02:44:49.087Z,1.40
2023-07-26T02:45:49.107Z,1.20
2023-07-26T02:46:49.068Z,1.40
2023-07-26T02:47:49.101Z,1.20
2023-07-26T02:48:49.055Z,1.40
2023-07-26T02:49:49.139Z,1.20
2023-07-26T02:50:49.046Z,1.30
2023-07-26T02:51:49.038Z,1.40
2023-07-26T02:52:49.032Z,1.50
2023-07-26T02:53:49.042Z,1.20
2023-07-26T02:54:49.108Z,1.40
2023-07-26T02:55:49.008Z,1.50
2023-07-26T02:56:49.011Z,1.50
2023-07-26T02:57:48.999Z,1.30
2023-07-26T02:58:48.991Z,1.20
2023-07-26T02:59:49.012Z,1.30
2023-07-26T03:00:49.001Z,1.30
2023-07-26T03:01:48.996Z,1.30
2023-07-26T03:02:49.051Z,1.20
2023-07-26T03:03:48.971Z,1.30
2023-07-26T03:04:48.951Z,1.40
2023-07-26T03:05:48.956Z,1.20
2023-07-26T03:06:48.945Z,1.50
2023-07-26T03:07:48.933Z,1.30
2023-07-26T03:08:48.938Z,1.40
2023-07-26T03:09:48.925Z,1.20
2023-07-26T03:10:48.912Z,1.60
2023-07-26T03:11:48.906Z,1.40
2023-07-26T03:12:48.901Z,1.50
2023-07-26T03:13:48.902Z,1.40
2023-07-26T03:14:48.888Z,1.50
2023-07-26T03:15:48.897Z,1.40
2023-07-26T03:16:48.873Z,1.50
2023-07-26T03:17:48.927Z,1.40
2023-07-26T03:18:48.869Z,1.60
2023-07-26T03:19:48.858Z,1.40
2023-07-26T03:20:48.848Z,1.50
2023-07-26T03:21:48.847Z,1.50
2023-07-26T03:22:48.837Z,1.40
2023-07-26T03:23:48.839Z,1.50
2023-07-26T03:24:48.919Z,1.30
2023-07-26T03:25:48.857Z,1.40
2023-07-26T03:26:48.809Z,1.50
2023-07-26T03:27:48.802Z,1.50
2023-07-26T03:28:48.807Z,1.50
2023-07-26T03:29:48.797Z,1.30
2023-07-26T03:30:48.796Z,1.50
2023-07-26T03:31:48.782Z,1.40
2023-07-26T03:32:48.864Z,1.40
2023-07-26T03:33:48.761Z,1.50
2023-07-26T03:34:48.757Z,1.50
2023-07-26T03:35:48.747Z,1.40
2023-07-26T03:36:48.739Z,1.40
2023-07-26T03:37:48.734Z,1.50
2023-07-26T03:38:48.733Z,1.60
2023-07-26T03:39:48.722Z,1.40
2023-07-26T03:40:48.716Z,1.50
2023-07-26T03:41:48.717Z,1.40
2023-07-26T03:42:48.700Z,1.50
2023-07-26T03:43:48.691Z,1.50
2023-07-26T03:44:48.690Z,1.70
2023-07-26T03:45:48.738Z,1.50
2023-07-26T03:46:48.672Z,1.30
2023-07-26T03:47:48.745Z,1.60
2023-07-26T03:48:48.660Z,1.30
2023-07-26T03:49:48.656Z,1.30
2023-07-26T03:50:48.652Z,1.60
2023-07-26T03:51:48.639Z,1.40
2023-07-26T03:52:48.648Z,1.40
2023-07-26T03:53:48.632Z,1.50
2023-07-26T03:54:48.623Z,1.50
2023-07-26T03:55:48.616Z,1.50
2023-07-26T03:56:48.609Z,1.50
2023-07-26T03:57:48.608Z,1.40
2023-07-26T03:58:48.598Z,1.50
2023-07-26T03:59:48.595Z,1.50
2023-07-26T04:00:48.642Z,1.60
2023-07-26T04:01:48.583Z,1.60
2023-07-26T04:02:48.625Z,1.60
2023-07-26T04:03:48.697Z,1.60
2023-07-26T04:04:48.561Z,1.50
2023-07-26T04:05:48.551Z,1.50
2023-07-26T04:06:48.544Z,1.50
2023-07-26T04:07:48.540Z,1.50
2023-07-26T04:08:48.559Z,1.90
2023-07-26T04:09:48.527Z,1.60
2023-07-26T04:10:48.522Z,1.70
2023-07-26T04:11:48.520Z,1.60
2023-07-26T04:12:48.509Z,1.60
2023-07-26T04:13:48.509Z,1.60
2023-07-26T04:14:48.513Z,1.80
2023-07-26T04:15:48.495Z,1.60
2023-07-26T04:16:48.483Z,1.40
2023-07-26T04:17:48.536Z,1.60
2023-07-26T04:18:48.488Z,1.40
2023-07-26T04:19:48.464Z,1.30
2023-07-26T04:20:48.459Z,1.60
2023-07-26T04:21:48.454Z,1.40
2023-07-26T04:22:48.447Z,1.50
2023-07-26T04:23:48.440Z,1.70
2023-07-26T04:24:48.468Z,1.60
2023-07-26T04:25:48.427Z,1.60
2023-07-26T04:26:48.422Z,1.50
2023-07-26T04:27:48.435Z,1.50
2023-07-26T04:28:48.413Z,1.50
2023-07-26T04:29:48.405Z,1.60
2023-07-26T04:30:48.414Z,1.60
2023-07-26T04:31:48.457Z,1.80
2023-07-26T04:32:48.412Z,1.60
2023-07-26T04:33:48.417Z,1.50
2023-07-26T04:34:48.372Z,1.50
2023-07-26T04:35:48.363Z,1.40
2023-07-26T04:36:48.373Z,1.50
2023-07-26T04:37:48.354Z,1.40
2023-07-26T04:38:48.347Z,1.70
2023-07-26T04:39:48.341Z,1.70
2023-07-26T04:40:48.332Z,1.60
2023-07-26T04:41:48.335Z,1.80
2023-07-26T04:42:48.322Z,1.60
2023-07-26T04:43:48.317Z,1.60
2023-07-26T04:44:48.310Z,1.50
2023-07-26T04:45:48.304Z,2.00
2023-07-26T04:46:48.320Z,1.60
2023-07-26T04:47:48.327Z,1.50
2023-07-26T04:48:48.286Z,1.60
2023-07-26T04:49:48.280Z,1.50
2023-07-26T04:50:48.280Z,1.50
2023-07-26T04:51:48.269Z,1.50
2023-07-26T04:52:48.266Z,1.50
2023-07-26T04:53:48.259Z,1.60
2023-07-26T04:54:48.252Z,1.70
2023-07-26T04:55:48.245Z,1.70
2023-07-26T04:56:48.242Z,1.60
2023-07-26T04:57:48.238Z,1.60
2023-07-26T04:58:48.238Z,1.70
2023-07-26T04:59:48.234Z,2.10
2023-07-26T05:00:48.285Z,1.90
2023-07-26T05:01:48.214Z,1.80
2023-07-26T05:02:48.228Z,1.90
2023-07-26T05:03:48.235Z,2.20
2023-07-26T05:04:48.200Z,2.80
2023-07-26T05:05:48.193Z,4.10
2023-07-26T05:06:48.195Z,4.10
2023-07-26T05:07:48.192Z,3.40
2023-07-26T05:08:48.177Z,3.90
2023-07-26T05:09:48.187Z,3.00
2023-07-26T05:10:48.169Z,2.50
2023-07-26T05:11:48.187Z,1.90
2023-07-26T05:12:48.156Z,1.60
2023-07-26T05:13:48.150Z,2.10
2023-07-26T05:14:48.146Z,1.90
2023-07-26T05:15:48.156Z,1.60
2023-07-26T05:16:48.168Z,1.80
2023-07-26T05:17:48.145Z,1.60
2023-07-26T05:18:48.125Z,1.40
2023-07-26T05:19:48.119Z,1.60
2023-07-26T05:20:48.124Z,1.50
2023-07-26T05:21:48.114Z,1.80
2023-07-26T05:22:48.126Z,1.70
2023-07-26T05:23:48.100Z,1.70
2023-07-26T05:24:48.145Z,2.20
2023-07-26T05:25:48.090Z,2.10
2023-07-26T05:26:48.096Z,2.40
2023-07-26T05:27:48.092Z,2.20
2023-07-26T05:28:48.075Z,1.80
2023-07-26T05:29:48.076Z,1.50
2023-07-26T05:30:48.094Z,1.80
2023-07-26T05:31:48.061Z,2.00
2023-07-26T05:32:48.070Z,1.80
2023-07-26T05:33:48.054Z,1.90
2023-07-26T05:34:48.056Z,2.30
2023-07-26T05:35:48.040Z,2.50
2023-07-26T05:36:48.037Z,3.40
2023-07-26T05:37:48.032Z,5.10
2023-07-26T05:38:48.040Z,5.80
2023-07-26T05:39:48.026Z,5.80
2023-07-26T05:40:48.022Z,5.70
2023-07-26T05:41:48.012Z,4.40
2023-07-26T05:42:48.012Z,5.00
2023-07-26T05:43:48.012Z,4.80
2023-07-26T05:44:48.007Z,4.90
2023-07-26T05:45:47.999Z,3.80
2023-07-26T05:46:48.022Z,4.20
2023-07-26T05:47:48.049Z,4.20
2023-07-26T05:48:47.989Z,4.50
2023-07-26T05:49:47.984Z,4.30
2023-07-26T05:50:47.974Z,5.10
2023-07-26T05:51:47.969Z,6.40
2023-07-26T05:52:47.965Z,6.60
2023-07-26T05:53:47.963Z,7.20
2023-07-26T05:54:47.956Z,6.70
2023-07-26T05:55:48.040Z,5.40
2023-07-26T05:56:47.948Z,4.40
2023-07-26T05:57:47.952Z,4.30
2023-07-26T05:58:49.503Z,4.30
2023-07-26T05:59:47.942Z,4.50
2023-07-26T06:00:47.933Z,5.30
2023-07-26T06:01:47.934Z,5.10
2023-07-26T06:02:47.998Z,6.00
2023-07-26T06:03:47.929Z,6.30
2023-07-26T06:04:47.925Z,5.90
2023-07-26T06:05:47.947Z,4.60
2023-07-26T06:06:47.915Z,5.30
2023-07-26T06:07:47.912Z,4.30
2023-07-26T06:08:47.911Z,5.20
2023-07-26T06:09:47.917Z,5.80
2023-07-26T06:10:47.903Z,5.40
2023-07-26T06:11:56.759Z,5.80
2023-07-26T06:12:47.897Z,5.10
2023-07-26T06:13:47.915Z,6.10
2023-07-26T06:14:47.899Z,6.30
2023-07-26T06:15:47.893Z,3.00
2023-07-26T06:16:47.968Z,3.60
2023-07-26T06:17:47.919Z,3.20
2023-07-26T06:18:47.884Z,7.30
2023-07-26T06:19:47.892Z,7.30
2023-07-26T06:20:47.879Z,8.00
2023-07-26T06:21:47.884Z,7.90
2023-07-26T06:22:47.886Z,5.70
2023-07-26T06:23:47.876Z,7.30
2023-07-26T06:24:47.916Z,7.50
2023-07-26T06:25:47.872Z,7.40
2023-07-26T06:26:47.865Z,8.30
2023-07-26T06:27:47.863Z,7.60
2023-07-26T06:28:47.874Z,6.00
2023-07-26T06:29:47.862Z,4.90
2023-07-26T06:30:47.908Z,6.70
2023-07-26T06:31:47.864Z,4.60
2023-07-26T06:32:47.907Z,3.50
2023-07-26T06:33:47.857Z,4.20
2023-07-26T06:34:47.921Z,5.30
2023-07-26T06:35:47.853Z,2.50
2023-07-26T06:36:47.855Z,1.60
2023-07-26T06:37:47.852Z,1.50
2023-07-26T06:38:47.860Z,1.70
2023-07-26T06:39:47.851Z,3.60
2023-07-26T06:40:47.846Z,2.90
2023-07-26T06:41:47.848Z,4.10
2023-07-26T06:42:47.845Z,4.90
2023-07-26T06:43:47.844Z,6.20
2023-07-26T06:44:47.843Z,4.50
2023-07-26T06:45:47.858Z,4.20
2023-07-26T06:46:47.838Z,4.00
2023-07-26T06:47:47.856Z,3.40
2023-07-26T06:48:47.879Z,3.40
2023-07-26T06:49:47.839Z,3.00
2023-07-26T06:50:47.835Z,2.70
2023-07-26T06:51:47.839Z,2.30
2023-07-26T06:52:47.836Z,2.40
2023-07-26T06:53:47.839Z,2.60
2023-07-26T06:54:47.833Z,2.00
2023-07-26T06:55:47.832Z,2.00
2023-07-26T06:56:47.832Z,2.10
2023-07-26T06:57:47.832Z,2.00
2023-07-26T06:58:47.828Z,1.90
2023-07-26T06:59:47.832Z,2.20
2023-07-26T07:00:47.827Z,2.00
2023-07-26T07:01:47.897Z,2.20
2023-07-26T07:02:47.863Z,1.80
2023-07-26T07:04:47.860Z,1.80
2023-07-26T07:05:47.826Z,2.00
2023-07-26T07:06:47.824Z,1.90
2023-07-26T07:07:47.824Z,1.70
2023-07-26T07:08:47.822Z,1.90
2023-07-26T07:09:47.837Z,1.60
2023-07-26T07:10:47.821Z,1.60
2023-07-26T07:11:47.824Z,1.50
2023-07-26T07:12:47.823Z,1.40
2023-07-26T07:13:47.835Z,1.50
2023-07-26T07:14:47.828Z,1.40
2023-07-26T07:15:47.864Z,1.20
2023-07-26T07:16:47.831Z,1.30
2023-07-26T07:17:51.069Z,1.40
2023-07-26T07:18:47.821Z,1.30
2023-07-26T07:19:47.821Z,1.30
2023-07-26T07:20:47.822Z,1.30
2023-07-26T07:21:47.864Z,1.40
2023-07-26T07:22:47.820Z,1.40
2023-07-26T07:23:47.820Z,1.30
2023-07-26T07:24:47.854Z,1.30
2023-07-26T07:25:47.820Z,1.30
2023-07-26T07:26:47.818Z,1.40
2023-07-26T07:27:47.830Z,1.40
2023-07-26T07:28:47.836Z,1.30
2023-07-26T07:29:47.826Z,1.40
2023-07-26T07:30:47.819Z,1.30
2023-07-26T07:31:47.856Z,1.30
2023-07-26T07:32:47.866Z,1.30
2023-07-26T07:33:47.829Z,1.20
2023-07-26T07:34:47.818Z,1.50
2023-07-26T07:35:47.824Z,1.40
2023-07-26T07:36:47.815Z,1.40
2023-07-26T07:37:47.820Z,1.40
2023-07-26T07:38:47.838Z,1.40
2023-07-26T07:39:47.814Z,1.30
2023-07-26T07:40:47.814Z,1.50
2023-07-26T07:41:47.817Z,1.30
2023-07-26T07:42:47.815Z,1.40
2023-07-26T07:43:47.813Z,1.40
2023-07-26T07:44:47.832Z,1.30
2023-07-26T07:45:47.839Z,1.50
2023-07-26T07:47:00.322Z,1.70
2023-07-26T07:47:47.897Z,2.00
2023-07-26T07:48:47.809Z,1.80
2023-07-26T07:49:47.811Z,2.00
2023-07-26T07:50:47.821Z,1.90
2023-07-26T07:51:47.807Z,1.60
2023-07-26T07:52:47.814Z,1.20
2023-07-26T07:53:47.810Z,1.80
2023-07-26T07:54:47.806Z,1.50
2023-07-26T07:55:47.809Z,1.80
2023-07-26T07:56:47.809Z,1.70
2023-07-26T07:57:47.828Z,1.20
2023-07-26T07:58:47.807Z,1.80
2023-07-26T07:59:47.815Z,1.90
2023-07-26T08:00:47.806Z,1.90
2023-07-26T08:01:47.822Z,1.70
2023-07-26T08:02:47.847Z,1.80
2023-07-26T08:03:47.876Z,1.30
2023-07-26T08:04:47.813Z,1.50
2023-07-26T08:05:47.807Z,1.60
2023-07-26T08:06:47.817Z,1.50
2023-07-26T08:07:47.838Z,1.80
2023-07-26T08:08:47.814Z,1.40
2023-07-26T08:09:47.824Z,1.50
2023-07-26T08:10:47.824Z,1.40
2023-07-26T08:11:47.812Z,1.50
2023-07-26T08:12:47.813Z,1.50
2023-07-26T08:13:47.817Z,1.40
2023-07-26T08:14:47.812Z,1.40
2023-07-26T08:15:47.881Z,1.50
2023-07-26T08:16:47.934Z,1.60
2023-07-26T08:17:47.855Z,1.70
2023-07-26T08:18:47.819Z,1.80
2023-07-26T08:19:47.826Z,1.70
2023-07-26T08:20:47.832Z,1.70
2023-07-26T08:21:47.818Z,2.00
2023-07-26T08:22:47.820Z,1.80
2023-07-26T08:23:47.836Z,2.00
2023-07-26T08:24:47.834Z,1.90
2023-07-26T08:25:47.823Z,2.00
2023-07-26T08:26:47.841Z,2.20
2023-07-26T08:27:47.829Z,2.10
2023-07-26T08:28:47.828Z,2.00
2023-07-26T08:29:47.845Z,2.10
2023-07-26T08:30:47.822Z,2.30
2023-07-26T08:31:47.876Z,2.40
2023-07-26T08:32:47.842Z,2.20
2023-07-26T08:33:47.831Z,2.20
2023-07-26T08:34:47.844Z,2.20
2023-07-26T08:35:47.831Z,2.00
2023-07-26T08:36:47.842Z,2.00
2023-07-26T08:37:47.836Z,1.90
2023-07-26T08:38:47.829Z,1.90
2023-07-26T08:39:47.834Z,2.20
2023-07-26T08:40:47.842Z,2.20
2023-07-26T08:41:47.831Z,2.20
2023-07-26T08:42:47.833Z,2.40
2023-07-26T08:43:47.833Z,2.20
2023-07-26T08:44:47.833Z,2.00
2023-07-26T08:45:47.858Z,2.30
2023-07-26T08:46:47.833Z,1.80
2023-07-26T08:47:47.873Z,1.30
2023-07-26T08:48:47.836Z,1.90
2023-07-26T08:49:47.829Z,2.40
2023-07-26T08:50:47.834Z,2.10
2023-07-26T08:51:47.833Z,2.10
2023-07-26T08:52:47.842Z,2.10
2023-07-26T08:53:47.831Z,1.90
2023-07-26T08:54:47.839Z,1.50
2023-07-26T08:55:47.834Z,1.30
2023-07-26T08:56:47.826Z,1.50
2023-07-26T08:57:47.825Z,1.30
2023-07-26T08:58:47.822Z,1.40
2023-07-26T08:59:47.876Z,1.40
2023-07-26T09:00:47.892Z,1.40
2023-07-26T09:02:02.076Z,1.40
2023-07-26T09:02:47.934Z,1.30
2023-07-26T09:03:47.902Z,1.30
2023-07-26T09:04:47.824Z,1.20
2023-07-26T09:05:47.829Z,1.20
2023-07-26T09:06:47.827Z,1.20
2023-07-26T09:07:47.819Z,1.10
2023-07-26T09:08:47.821Z,1.30
2023-07-26T09:09:47.853Z,1.30
2023-07-26T09:10:47.819Z,1.10
2023-07-26T09:11:47.820Z,1.20
2023-07-26T09:12:47.823Z,1.20
2023-07-26T09:13:47.826Z,1.30
2023-07-26T09:14:47.836Z,1.20
2023-07-26T09:15:47.834Z,1.10
2023-07-26T09:16:47.823Z,1.20
2023-07-26T09:17:47.836Z,1.00
2023-07-26T09:18:47.818Z,1.30
2023-07-26T09:19:47.818Z,1.10
2023-07-26T09:20:47.820Z,1.00
2023-07-26T09:21:47.822Z,1.20
2023-07-26T09:22:47.818Z,1.20
2023-07-26T09:23:50.443Z,1.60
2023-07-26T09:24:47.859Z,1.70
2023-07-26T09:25:47.819Z,1.60
2023-07-26T09:26:47.816Z,1.80
2023-07-26T09:27:47.818Z,1.30
2023-07-26T09:28:47.813Z,1.30
2023-07-26T09:29:47.811Z,1.20
2023-07-26T09:30:47.812Z,1.10
2023-07-26T09:31:47.838Z,1.30
2023-07-26T09:32:47.842Z,1.20
2023-07-26T09:33:47.809Z,1.10
2023-07-26T09:34:47.841Z,1.20
2023-07-26T09:35:47.812Z,1.20
2023-07-26T09:36:47.812Z,1.20
2023-07-26T09:37:47.807Z,1.30
2023-07-26T09:38:47.806Z,1.10
2023-07-26T09:39:47.803Z,1.10
2023-07-26T09:40:47.822Z,1.10
2023-07-26T09:41:47.798Z,1.20
2023-07-26T09:42:49.268Z,1.10
2023-07-26T09:43:47.794Z,1.00
2023-07-26T09:44:47.806Z,1.00
2023-07-26T09:45:47.792Z,1.10
2023-07-26T09:46:47.814Z,1.00
2023-07-26T09:47:48.329Z,1.20
2023-07-26T09:48:53.899Z,1.10
2023-07-26T09:49:47.835Z,1.10
2023-07-26T09:52:47.787Z,1.10
2023-07-26T09:53:47.801Z,1.10
2023-07-26T09:54:47.782Z,1.10
2023-07-26T09:55:59.895Z,1.20
2023-07-26T09:56:47.779Z,1.20
2023-07-26T09:57:47.778Z,1.10
2023-07-26T09:58:48.326Z,0.90
2023-07-26T09:59:48.761Z,1.00
2023-07-26T10:00:47.789Z,1.20
2023-07-26T10:01:47.775Z,1.10
2023-07-26T10:02:47.840Z,1.00
2023-07-26T10:03:47.771Z,1.10
2023-07-26T10:04:47.773Z,1.30
2023-07-26T10:05:47.773Z,1.20
2023-07-26T10:06:47.775Z,1.10
2023-07-26T10:07:47.769Z,1.20
2023-07-26T10:08:47.773Z,1.10
2023-07-26T10:09:47.850Z,1.10
2023-07-26T10:10:47.762Z,1.20
2023-07-26T10:11:47.766Z,1.30
2023-07-26T10:12:47.761Z,1.20
2023-07-26T10:13:47.764Z,1.20
2023-07-26T10:14:47.763Z,1.20
2023-07-26T10:15:47.758Z,1.20
2023-07-26T10:16:47.783Z,1.20
2023-07-26T10:17:47.783Z,1.20
2023-07-26T10:18:47.755Z,1.20
2023-07-26T10:19:47.758Z,1.10
2023-07-26T10:20:47.776Z,1.20
2023-07-26T10:21:47.758Z,1.30
2023-07-26T10:22:47.751Z,1.10
2023-07-26T10:23:47.747Z,1.00
2023-07-26T10:24:47.877Z,1.30
2023-07-26T10:25:47.751Z,1.30
2023-07-26T10:26:47.755Z,1.20
2023-07-26T10:27:47.745Z,1.20
2023-07-26T10:28:47.741Z,1.20
2023-07-26T10:29:47.744Z,1.20
2023-07-26T10:30:47.824Z,1.20
2023-07-26T10:31:47.746Z,1.20
2023-07-26T10:32:47.742Z,1.20
2023-07-26T10:33:47.737Z,1.20
2023-07-26T10:34:47.731Z,1.20
2023-07-26T10:35:47.739Z,1.30
2023-07-26T10:36:47.730Z,1.20
2023-07-26T10:37:47.745Z,1.20
2023-07-26T10:38:47.727Z,1.10
2023-07-26T10:39:47.728Z,1.20
2023-07-26T10:40:47.725Z,1.20
2023-07-26T10:41:47.728Z,1.20
2023-07-26T10:42:47.727Z,1.20
2023-07-26T10:43:47.725Z,1.20
2023-07-26T10:44:47.753Z,1.20
2023-07-26T10:45:47.725Z,1.20
2023-07-26T10:46:47.770Z,1.30
2023-07-26T10:47:47.752Z,1.10
2023-07-26T10:48:47.714Z,1.30
2023-07-26T10:49:47.715Z,1.20
2023-07-26T10:50:47.710Z,1.20
2023-07-26T10:51:47.710Z,1.20
2023-07-26T10:52:47.708Z,1.40
2023-07-26T10:53:47.705Z,1.40
2023-07-26T10:54:47.740Z,1.40
2023-07-26T10:55:47.704Z,1.30
2023-07-26T10:56:47.703Z,1.50
2023-07-26T10:57:47.700Z,1.40
2023-07-26T10:58:47.701Z,1.30
2023-07-26T10:59:47.700Z,1.30
2023-07-26T11:00:47.696Z,1.30
2023-07-26T11:01:47.771Z,1.50
2023-07-26T11:02:47.792Z,1.10
2023-07-26T11:03:47.700Z,1.00
2023-07-26T11:04:47.720Z,1.10
2023-07-26T11:05:47.684Z,1.20
2023-07-26T11:06:47.677Z,1.10
2023-07-26T11:07:47.679Z,1.10
2023-07-26T11:08:47.677Z,1.10
2023-07-26T11:09:47.683Z,1.10
2023-07-26T11:10:47.669Z,1.10
2023-07-26T11:11:47.668Z,1.20
2023-07-26T11:12:47.665Z,1.00
2023-07-26T11:13:47.664Z,1.30
2023-07-26T11:14:54.725Z,1.20
2023-07-26T11:16:14.914Z,1.10
2023-07-26T11:16:47.678Z,1.10
2023-07-26T11:17:47.663Z,1.10
2023-07-26T11:18:47.665Z,1.20
2023-07-26T11:19:47.695Z,1.20
2023-07-26T11:20:47.650Z,1.20
2023-07-26T11:21:47.649Z,1.50
2023-07-26T11:22:47.643Z,1.20
2023-07-26T11:23:47.642Z,1.20
2023-07-26T11:24:47.755Z,1.20
2023-07-26T11:25:47.643Z,1.30
2023-07-26T11:26:47.632Z,1.30
2023-07-26T11:27:47.629Z,1.10
2023-07-26T11:28:47.625Z,1.30
2023-07-26T11:29:47.624Z,1.10
2023-07-26T11:30:47.623Z,1.20
2023-07-26T11:31:47.685Z,1.30
2023-07-26T11:32:47.648Z,1.20
2023-07-26T11:33:47.619Z,1.30
2023-07-26T11:34:47.614Z,1.30
2023-07-26T11:35:47.609Z,1.30
2023-07-26T11:36:47.607Z,1.30
2023-07-26T11:37:47.604Z,1.30
2023-07-26T11:38:47.611Z,1.20
2023-07-26T11:39:47.605Z,1.30
2023-07-26T11:40:47.597Z,1.30
2023-07-26T11:41:47.617Z,1.30
2023-07-26T11:42:47.593Z,1.20
2023-07-26T11:43:47.607Z,1.40
2023-07-26T11:44:47.588Z,1.40
2023-07-26T11:45:47.651Z,1.30
2023-07-26T11:46:47.614Z,1.30
2023-07-26T11:47:47.606Z,1.30
2023-07-26T11:48:47.580Z,1.30
2023-07-26T11:49:47.579Z,1.30
2023-07-26T11:50:47.579Z,1.40
2023-07-26T11:51:47.576Z,1.50
2023-07-26T11:52:47.573Z,1.30
2023-07-26T11:53:50.042Z,1.50
2023-07-26T11:54:47.571Z,1.40
2023-07-26T11:55:47.630Z,1.20
2023-07-26T11:56:47.566Z,1.30
2023-07-26T11:57:47.568Z,1.30
2023-07-26T11:58:47.562Z,1.30
2023-07-26T11:59:47.560Z,1.40
2023-07-26T12:00:48.548Z,1.30
2023-07-26T12:01:47.620Z,1.40
2023-07-26T12:02:47.620Z,1.40
2023-07-26T12:03:47.643Z,1.20
2023-07-26T12:04:47.579Z,1.30
2023-07-26T12:05:47.570Z,1.20
2023-07-26T12:06:47.552Z,1.10
2023-07-26T12:07:47.559Z,1.50
2023-07-26T12:08:47.608Z,1.60
2023-07-26T12:09:47.546Z,1.30
2023-07-26T12:10:47.544Z,1.50
2023-07-26T12:11:47.597Z,1.40
2023-07-26T12:12:47.588Z,1.50
2023-07-26T12:13:47.552Z,1.30
2023-07-26T12:14:47.538Z,1.20
2023-07-26T12:15:47.536Z,1.20
2023-07-26T12:16:47.560Z,1.30
2023-07-26T12:17:48.746Z,1.30
2023-07-26T12:18:47.579Z,1.40
2023-07-26T12:19:47.535Z,1.30
2023-07-26T12:21:00.313Z,1.30
2023-07-26T12:21:47.570Z,1.40
2023-07-26T12:22:47.528Z,1.40
2023-07-26T12:23:47.522Z,1.30
2023-07-26T12:24:47.536Z,1.40
2023-07-26T12:25:47.546Z,1.40
2023-07-26T12:26:47.517Z,1.60
2023-07-26T12:27:47.514Z,1.30
2023-07-26T12:28:47.516Z,1.30
2023-07-26T12:29:49.244Z,1.30
2023-07-26T12:30:47.510Z,1.10
2023-07-26T12:31:47.784Z,1.20
2023-07-26T12:32:47.560Z,1.30
2023-07-26T12:33:47.514Z,1.20
2023-07-26T12:34:47.506Z,1.20
2023-07-26T12:35:50.105Z,1.20
2023-07-26T12:36:47.525Z,1.20
2023-07-26T12:37:47.500Z,1.30
2023-07-26T12:38:47.506Z,1.10
2023-07-26T12:39:47.496Z,1.10
2023-07-26T12:40:47.498Z,1.20
2023-07-26T12:41:47.491Z,1.10
2023-07-26T12:42:47.492Z,1.20
2023-07-26T12:43:47.492Z,1.10
2023-07-26T12:44:47.490Z,1.10
2023-07-26T12:45:47.523Z,1.30
2023-07-26T12:47:47.522Z,1.10
2023-07-26T12:48:47.492Z,1.10
2023-07-26T12:49:47.485Z,1.20
2023-07-26T12:50:47.526Z,1.00
2023-07-26T12:51:47.480Z,1.10
2023-07-26T12:52:47.496Z,1.10
2023-07-26T12:53:47.481Z,1.20
2023-07-26T12:54:47.477Z,1.20
2023-07-26T12:55:47.528Z,1.00
2023-07-26T12:56:47.551Z,1.10
2023-07-26T12:57:47.479Z,1.10
2023-07-26T12:59:04.761Z,1.10
2023-07-26T12:59:48.929Z,1.10
2023-07-26T13:00:47.470Z,1.10
2023-07-26T13:01:47.590Z,1.00
2023-07-26T13:02:47.618Z,1.10
2023-07-26T13:03:47.512Z,1.10
2023-07-26T13:04:47.464Z,1.20
2023-07-26T13:05:47.478Z,1.00
2023-07-26T13:06:47.480Z,1.00
2023-07-26T13:07:47.465Z,1.20
2023-07-26T13:08:47.463Z,1.20
2023-07-26T13:09:47.473Z,1.00
2023-07-26T13:10:47.459Z,1.20
2023-07-26T13:11:47.461Z,1.10
2023-07-26T13:12:47.456Z,1.00
2023-07-26T13:13:47.455Z,1.00
2023-07-26T13:14:47.456Z,1.10
2023-07-26T13:15:47.470Z,1.10
2023-07-26T13:16:47.456Z,1.00
2023-07-26T13:17:47.517Z,1.00
2023-07-26T13:18:47.449Z,1.00
2023-07-26T13:19:47.454Z,1.30
2023-07-26T13:20:47.450Z,1.30
2023-07-26T13:21:49.313Z,1.00
2023-07-26T13:22:47.446Z,1.10